sensor_id;sensor_type;location;lat;lon;timestamp;temperature;humidity
32865;DHT22;19219;44.500;11.188;2023-07-30T00:02:17;26.00;99.90
32865;DHT22;19219;44.500;11.188;2023-07-30T00:04:43;25.90;99.90
32865;DHT22;19219;44.500;11.188;2023-07-30T00:07:09;25.70;99.90
32865;DHT22;19219;44.500;11.188;2023-07-30T00:09:34;25.60;99.90
32865;DHT22;19219;44.500;11.188;2023-07-30T00:12:00;25.40;99.90
32865;DHT22;19219;44.500;11.188;2023-07-30T00:14:27;25.40;99.90
32865;DHT22;19219;44.500;11.188;2023-07-30T00:16:53;25.30;99.90
32865;DHT22;19219;44.500;11.188;2023-07-30T00:19:19;25.30;99.90
32865;DHT22;19219;44.500;11.188;2023-07-30T00:21:45;25.20;99.90
32865;DHT22;19219;44.500;11.188;2023-07-30T00:24:13;25.10;99.90
32865;DHT22;19219;44.500;11.188;2023-07-30T00:26:38;24.90;99.90
32865;DHT22;19219;44.500;11.188;2023-07-30T00:29:04;24.80;99.90
32865;DHT22;19219;44.500;11.188;2023-07-30T00:31:30;24.80;99.90
32865;DHT22;19219;44.500;11.188;2023-07-30T00:33:55;24.80;99.90
32865;DHT22;19219;44.500;11.188;2023-07-30T00:36:21;24.80;99.90
32865;DHT22;19219;44.500;11.188;2023-07-30T00:38:47;24.80;99.90
32865;DHT22;19219;44.500;11.188;2023-07-30T00:41:12;24.80;99.90
32865;DHT22;19219;44.500;11.188;2023-07-30T00:43:38;24.70;99.90
32865;DHT22;19219;44.500;11.188;2023-07-30T00:46:04;24.70;99.90
32865;DHT22;19219;44.500;11.188;2023-07-30T00:48:30;24.70;99.90
32865;DHT22;19219;44.500;11.188;2023-07-30T00:50:56;24.80;99.90
32865;DHT22;19219;44.500;11.188;2023-07-30T00:53:22;24.90;99.90
32865;DHT22;19219;44.500;11.188;2023-07-30T00:55:49;25.00;99.90
32865;DHT22;19219;44.500;11.188;2023-07-30T00:58:15;25.10;99.90
32865;DHT22;19219;44.500;11.188;2023-07-30T01:00:42;25.20;99.90
32865;DHT22;19219;44.500;11.188;2023-07-30T01:03:08;25.20;99.90
32865;DHT22;19219;44.500;11.188;2023-07-30T01:05:34;25.30;99.90
32865;DHT22;19219;44.500;11.188;2023-07-30T01:07:59;25.20;99.90
32865;DHT22;19219;44.500;11.188;2023-07-30T01:10:25;25.00;99.90
32865;DHT22;19219;44.500;11.188;2023-07-30T01:12:52;24.90;99.90
32865;DHT22;19219;44.500;11.188;2023-07-30T01:15:18;24.90;99.90
32865;DHT22;19219;44.500;11.188;2023-07-30T01:17:44;24.90;99.90
32865;DHT22;19219;44.500;11.188;2023-07-30T01:20:11;25.00;99.90
32865;DHT22;19219;44.500;11.188;2023-07-30T01:22:37;25.00;99.90
32865;DHT22;19219;44.500;11.188;2023-07-30T01:25:03;24.90;99.90
32865;DHT22;19219;44.500;11.188;2023-07-30T01:27:31;24.90;99.90
32865;DHT22;19219;44.500;11.188;2023-07-30T01:30:08;25.00;99.90
32865;DHT22;19219;44.500;11.188;2023-07-30T01:32:36;25.00;99.90
32865;DHT22;19219;44.500;11.188;2023-07-30T01:35:03;25.10;99.90
32865;DHT22;19219;44.500;11.188;2023-07-30T01:37:30;25.00;99.90
32865;DHT22;19219;44.500;11.188;2023-07-30T01:39:56;25.00;99.90
32865;DHT22;19219;44.500;11.188;2023-07-30T01:42:28;25.00;99.90
32865;DHT22;19219;44.500;11.188;2023-07-30T01:44:54;25.00;99.90
32865;DHT22;19219;44.500;11.188;2023-07-30T01:47:19;25.00;99.90
32865;DHT22;19219;44.500;11.188;2023-07-30T01:49:45;25.00;99.90
32865;DHT22;19219;44.500;11.188;2023-07-30T01:52:10;25.10;99.90
32865;DHT22;19219;44.500;11.188;2023-07-30T01:54:36;25.10;99.90
32865;DHT22;19219;44.500;11.188;2023-07-30T01:57:02;25.10;99.90
32865;DHT22;19219;44.500;11.188;2023-07-30T01:59:28;25.20;99.90
32865;DHT22;19219;44.500;11.188;2023-07-30T02:01:53;25.20;99.90
32865;DHT22;19219;44.500;11.188;2023-07-30T02:04:19;25.20;99.90
32865;DHT22;19219;44.500;11.188;2023-07-30T02:06:45;25.30;99.90
32865;DHT22;19219;44.500;11.188;2023-07-30T02:09:10;25.20;99.90
32865;DHT22;19219;44.500;11.188;2023-07-30T02:11:36;25.20;99.90
32865;DHT22;19219;44.500;11.188;2023-07-30T02:14:02;25.20;99.90
32865;DHT22;19219;44.500;11.188;2023-07-30T02:16:27;25.20;99.90
32865;DHT22;19219;44.500;11.188;2023-07-30T02:18:53;25.20;99.90
32865;DHT22;19219;44.500;11.188;2023-07-30T02:21:19;25.20;99.90
32865;DHT22;19219;44.500;11.188;2023-07-30T02:23:44;25.20;99.90
32865;DHT22;19219;44.500;11.188;2023-07-30T02:26:10;25.10;99.90
32865;DHT22;19219;44.500;11.188;2023-07-30T02:28:36;25.10;99.90
32865;DHT22;19219;44.500;11.188;2023-07-30T02:31:01;25.00;99.90
32865;DHT22;19219;44.500;11.188;2023-07-30T02:33:27;25.00;99.90
32865;DHT22;19219;44.500;11.188;2023-07-30T02:35:53;24.90;99.90
32865;DHT22;19219;44.500;11.188;2023-07-30T02:38:18;24.90;99.90
32865;DHT22;19219;44.500;11.188;2023-07-30T02:40:44;24.80;99.90
32865;DHT22;19219;44.500;11.188;2023-07-30T02:43:09;24.90;99.90
32865;DHT22;19219;44.500;11.188;2023-07-30T02:45:35;24.70;99.90
32865;DHT22;19219;44.500;11.188;2023-07-30T02:48:01;24.60;99.90
32865;DHT22;19219;44.500;11.188;2023-07-30T02:50:26;24.60;99.90
32865;DHT22;19219;44.500;11.188;2023-07-30T02:52:52;24.60;99.90
32865;DHT22;19219;44.500;11.188;2023-07-30T02:55:18;24.50;99.90
32865;DHT22;19219;44.500;11.188;2023-07-30T02:57:44;24.60;99.90
32865;DHT22;19219;44.500;11.188;2023-07-30T03:00:10;24.60;99.90
32865;DHT22;19219;44.500;11.188;2023-07-30T03:02:36;24.60;99.90
32865;DHT22;19219;44.500;11.188;2023-07-30T03:05:02;24.50;99.90
32865;DHT22;19219;44.500;11.188;2023-07-30T03:07:27;24.50;99.90
32865;DHT22;19219;44.500;11.188;2023-07-30T03:09:53;24.60;99.90
32865;DHT22;19219;44.500;11.188;2023-07-30T03:12:19;24.60;99.90
32865;DHT22;19219;44.500;11.188;2023-07-30T03:14:44;24.60;99.90
32865;DHT22;19219;44.500;11.188;2023-07-30T03:17:10;24.70;99.90
32865;DHT22;19219;44.500;11.188;2023-07-30T03:19:36;24.60;99.90
32865;DHT22;19219;44.500;11.188;2023-07-30T03:22:01;24.60;99.90
32865;DHT22;19219;44.500;11.188;2023-07-30T03:24:27;24.50;99.90
32865;DHT22;19219;44.500;11.188;2023-07-30T03:26:53;24.50;99.90
32865;DHT22;19219;44.500;11.188;2023-07-30T03:29:18;24.50;99.90
32865;DHT22;19219;44.500;11.188;2023-07-30T03:31:44;24.40;99.90
32865;DHT22;19219;44.500;11.188;2023-07-30T03:34:09;24.40;99.90
32865;DHT22;19219;44.500;11.188;2023-07-30T03:36:35;24.40;99.90
32865;DHT22;19219;44.500;11.188;2023-07-30T03:39:01;24.40;99.90
32865;DHT22;19219;44.500;11.188;2023-07-30T03:41:27;24.40;99.90
32865;DHT22;19219;44.500;11.188;2023-07-30T03:43:52;24.50;99.90
32865;DHT22;19219;44.500;11.188;2023-07-30T03:46:18;24.40;99.90
32865;DHT22;19219;44.500;11.188;2023-07-30T03:48:44;24.30;99.90
32865;DHT22;19219;44.500;11.188;2023-07-30T03:51:09;24.30;99.90
32865;DHT22;19219;44.500;11.188;2023-07-30T03:53:35;24.30;99.90
32865;DHT22;19219;44.500;11.188;2023-07-30T03:56:01;24.20;99.90
32865;DHT22;19219;44.500;11.188;2023-07-30T03:58:27;24.10;99.90
32865;DHT22;19219;44.500;11.188;2023-07-30T04:00:52;24.00;99.90
32865;DHT22;19219;44.500;11.188;2023-07-30T04:03:18;23.80;99.90
32865;DHT22;19219;44.500;11.188;2023-07-30T04:05:44;23.70;99.90
32865;DHT22;19219;44.500;11.188;2023-07-30T04:08:09;23.60;99.90
32865;DHT22;19219;44.500;11.188;2023-07-30T04:10:35;23.50;99.90
32865;DHT22;19219;44.500;11.188;2023-07-30T04:13:01;23.60;99.90
32865;DHT22;19219;44.500;11.188;2023-07-30T04:15:27;23.80;99.90
32865;DHT22;19219;44.500;11.188;2023-07-30T04:17:53;23.80;99.90
32865;DHT22;19219;44.500;11.188;2023-07-30T04:20:19;23.80;99.90
32865;DHT22;19219;44.500;11.188;2023-07-30T04:22:45;23.80;99.90
32865;DHT22;19219;44.500;11.188;2023-07-30T04:25:10;23.80;99.90
32865;DHT22;19219;44.500;11.188;2023-07-30T04:27:37;23.80;99.90
32865;DHT22;19219;44.500;11.188;2023-07-30T04:30:04;23.80;99.90
32865;DHT22;19219;44.500;11.188;2023-07-30T04:32:30;23.60;99.90
32865;DHT22;19219;44.500;11.188;2023-07-30T04:34:55;23.60;99.90
32865;DHT22;19219;44.500;11.188;2023-07-30T04:37:21;23.60;99.90
32865;DHT22;19219;44.500;11.188;2023-07-30T04:39:48;23.70;99.90
32865;DHT22;19219;44.500;11.188;2023-07-30T04:42:13;23.60;99.90
32865;DHT22;19219;44.500;11.188;2023-07-30T04:44:40;23.60;99.90
32865;DHT22;19219;44.500;11.188;2023-07-30T04:47:06;23.60;99.90
32865;DHT22;19219;44.500;11.188;2023-07-30T04:49:33;23.70;99.90
32865;DHT22;19219;44.500;11.188;2023-07-30T04:51:58;23.80;99.90
32865;DHT22;19219;44.500;11.188;2023-07-30T04:54:24;23.80;99.90
32865;DHT22;19219;44.500;11.188;2023-07-30T04:56:50;23.90;99.90
32865;DHT22;19219;44.500;11.188;2023-07-30T04:59:15;24.00;99.90
32865;DHT22;19219;44.500;11.188;2023-07-30T05:01:41;24.00;99.90
32865;DHT22;19219;44.500;11.188;2023-07-30T05:04:07;24.10;99.90
32865;DHT22;19219;44.500;11.188;2023-07-30T05:06:32;24.20;99.90
32865;DHT22;19219;44.500;11.188;2023-07-30T05:08:58;24.20;99.90
32865;DHT22;19219;44.500;11.188;2023-07-30T05:11:24;24.30;99.90
32865;DHT22;19219;44.500;11.188;2023-07-30T05:13:49;24.30;99.90
32865;DHT22;19219;44.500;11.188;2023-07-30T05:16:15;24.40;99.90
32865;DHT22;19219;44.500;11.188;2023-07-30T05:18:41;24.50;99.90
32865;DHT22;19219;44.500;11.188;2023-07-30T05:21:06;24.50;99.90
32865;DHT22;19219;44.500;11.188;2023-07-30T05:23:32;24.60;99.90
32865;DHT22;19219;44.500;11.188;2023-07-30T05:25:58;24.60;99.90
32865;DHT22;19219;44.500;11.188;2023-07-30T05:28:23;24.70;99.90
32865;DHT22;19219;44.500;11.188;2023-07-30T05:30:49;24.70;99.90
32865;DHT22;19219;44.500;11.188;2023-07-30T05:33:15;24.60;99.90
32865;DHT22;19219;44.500;11.188;2023-07-30T05:35:41;24.60;99.90
32865;DHT22;19219;44.500;11.188;2023-07-30T05:38:07;24.60;99.90
32865;DHT22;19219;44.500;11.188;2023-07-30T05:40:35;24.50;99.90
32865;DHT22;19219;44.500;11.188;2023-07-30T05:43:01;24.50;99.90
32865;DHT22;19219;44.500;11.188;2023-07-30T05:45:26;24.40;99.90
32865;DHT22;19219;44.500;11.188;2023-07-30T05:47:52;24.50;99.90
32865;DHT22;19219;44.500;11.188;2023-07-30T05:50:18;24.40;99.90
32865;DHT22;19219;44.500;11.188;2023-07-30T05:52:44;24.50;99.90
32865;DHT22;19219;44.500;11.188;2023-07-30T05:55:09;24.50;99.90
32865;DHT22;19219;44.500;11.188;2023-07-30T05:57:35;24.50;99.90
32865;DHT22;19219;44.500;11.188;2023-07-30T06:00:01;24.50;99.90
32865;DHT22;19219;44.500;11.188;2023-07-30T06:02:26;24.60;99.90
32865;DHT22;19219;44.500;11.188;2023-07-30T06:04:52;24.60;99.90
32865;DHT22;19219;44.500;11.188;2023-07-30T06:07:18;24.70;99.90
32865;DHT22;19219;44.500;11.188;2023-07-30T06:09:43;24.60;99.90
32865;DHT22;19219;44.500;11.188;2023-07-30T06:12:10;24.60;99.90
32865;DHT22;19219;44.500;11.188;2023-07-30T06:14:36;24.60;99.90
32865;DHT22;19219;44.500;11.188;2023-07-30T06:17:02;24.70;99.90
32865;DHT22;19219;44.500;11.188;2023-07-30T06:19:28;24.80;99.90
32865;DHT22;19219;44.500;11.188;2023-07-30T06:21:53;24.90;99.90
32865;DHT22;19219;44.500;11.188;2023-07-30T06:24:19;24.90;99.90
32865;DHT22;19219;44.500;11.188;2023-07-30T06:26:45;25.20;99.90
32865;DHT22;19219;44.500;11.188;2023-07-30T06:29:10;25.80;99.90
32865;DHT22;19219;44.500;11.188;2023-07-30T06:31:36;26.60;99.90
32865;DHT22;19219;44.500;11.188;2023-07-30T06:34:02;27.40;99.90
32865;DHT22;19219;44.500;11.188;2023-07-30T06:36:27;28.20;99.90
32865;DHT22;19219;44.500;11.188;2023-07-30T06:38:53;28.90;99.90
32865;DHT22;19219;44.500;11.188;2023-07-30T06:41:18;29.40;99.90
32865;DHT22;19219;44.500;11.188;2023-07-30T06:43:45;29.60;99.90
32865;DHT22;19219;44.500;11.188;2023-07-30T06:46:10;29.90;99.90
32865;DHT22;19219;44.500;11.188;2023-07-30T06:48:36;30.20;99.90
32865;DHT22;19219;44.500;11.188;2023-07-30T06:51:05;30.40;99.90
32865;DHT22;19219;44.500;11.188;2023-07-30T06:53:31;30.40;99.90
32865;DHT22;19219;44.500;11.188;2023-07-30T06:55:56;30.60;99.90
32865;DHT22;19219;44.500;11.188;2023-07-30T06:58:22;30.50;99.90
32865;DHT22;19219;44.500;11.188;2023-07-30T07:00:48;30.30;99.90
32865;DHT22;19219;44.500;11.188;2023-07-30T07:03:13;30.10;99.90
32865;DHT22;19219;44.500;11.188;2023-07-30T07:05:39;30.00;99.90
32865;DHT22;19219;44.500;11.188;2023-07-30T07:08:05;30.10;99.90
32865;DHT22;19219;44.500;11.188;2023-07-30T07:10:31;30.50;99.90
32865;DHT22;19219;44.500;11.188;2023-07-30T07:12:56;30.70;99.90
32865;DHT22;19219;44.500;11.188;2023-07-30T07:15:22;31.00;99.90
32865;DHT22;19219;44.500;11.188;2023-07-30T07:17:48;30.90;99.90
32865;DHT22;19219;44.500;11.188;2023-07-30T07:20:13;31.10;99.90
32865;DHT22;19219;44.500;11.188;2023-07-30T07:22:39;31.40;99.90
32865;DHT22;19219;44.500;11.188;2023-07-30T07:25:05;31.40;99.90
32865;DHT22;19219;44.500;11.188;2023-07-30T07:27:31;31.60;99.90
32865;DHT22;19219;44.500;11.188;2023-07-30T07:29:56;31.50;99.90
32865;DHT22;19219;44.500;11.188;2023-07-30T07:32:22;31.90;99.90
32865;DHT22;19219;44.500;11.188;2023-07-30T07:34:48;32.10;99.90
32865;DHT22;19219;44.500;11.188;2023-07-30T07:37:15;32.00;99.90
32865;DHT22;19219;44.500;11.188;2023-07-30T07:39:42;32.20;99.90
32865;DHT22;19219;44.500;11.188;2023-07-30T07:42:09;32.20;99.90
32865;DHT22;19219;44.500;11.188;2023-07-30T07:44:34;32.40;99.90
32865;DHT22;19219;44.500;11.188;2023-07-30T07:47:00;32.70;99.90
32865;DHT22;19219;44.500;11.188;2023-07-30T07:49:26;32.90;99.90
32865;DHT22;19219;44.500;11.188;2023-07-30T07:51:51;32.90;99.90
32865;DHT22;19219;44.500;11.188;2023-07-30T07:54:17;33.20;99.90
32865;DHT22;19219;44.500;11.188;2023-07-30T07:56:43;33.40;99.90
32865;DHT22;19219;44.500;11.188;2023-07-30T07:59:08;33.60;99.90
32865;DHT22;19219;44.500;11.188;2023-07-30T08:01:34;33.60;99.90
32865;DHT22;19219;44.500;11.188;2023-07-30T08:04:00;33.60;99.90
32865;DHT22;19219;44.500;11.188;2023-07-30T08:06:26;33.70;99.90
32865;DHT22;19219;44.500;11.188;2023-07-30T08:08:52;33.50;99.90
32865;DHT22;19219;44.500;11.188;2023-07-30T08:11:18;33.30;99.90
32865;DHT22;19219;44.500;11.188;2023-07-30T08:13:43;33.60;99.90
32865;DHT22;19219;44.500;11.188;2023-07-30T08:16:09;33.80;99.90
32865;DHT22;19219;44.500;11.188;2023-07-30T08:18:34;34.10;99.90
32865;DHT22;19219;44.500;11.188;2023-07-30T08:21:00;34.10;99.90
32865;DHT22;19219;44.500;11.188;2023-07-30T08:23:26;34.30;99.40
32865;DHT22;19219;44.500;11.188;2023-07-30T08:25:52;34.50;99.80
32865;DHT22;19219;44.500;11.188;2023-07-30T08:28:17;34.40;98.70
32865;DHT22;19219;44.500;11.188;2023-07-30T08:30:43;34.50;98.30
32865;DHT22;19219;44.500;11.188;2023-07-30T08:33:09;34.00;98.00
32865;DHT22;19219;44.500;11.188;2023-07-30T08:35:34;34.10;98.40
32865;DHT22;19219;44.500;11.188;2023-07-30T08:38:00;34.10;98.10
32865;DHT22;19219;44.500;11.188;2023-07-30T08:40:26;34.00;98.50
32865;DHT22;19219;44.500;11.188;2023-07-30T08:42:52;34.10;98.40
32865;DHT22;19219;44.500;11.188;2023-07-30T08:45:18;33.80;98.30
32865;DHT22;19219;44.500;11.188;2023-07-30T08:47:45;33.50;98.80
32865;DHT22;19219;44.500;11.188;2023-07-30T08:50:11;33.40;99.30
32865;DHT22;19219;44.500;11.188;2023-07-30T08:52:37;33.20;98.90
32865;DHT22;19219;44.500;11.188;2023-07-30T08:55:04;33.50;98.90
32865;DHT22;19219;44.500;11.188;2023-07-30T08:57:30;33.90;98.50
32865;DHT22;19219;44.500;11.188;2023-07-30T09:05:15;32.90;98.00
32865;DHT22;19219;44.500;11.188;2023-07-30T09:07:41;33.20;98.30
32865;DHT22;19219;44.500;11.188;2023-07-30T09:10:07;33.10;98.70
32865;DHT22;19219;44.500;11.188;2023-07-30T09:12:34;33.00;99.00
32865;DHT22;19219;44.500;11.188;2023-07-30T09:15:03;32.90;98.70
32865;DHT22;19219;44.500;11.188;2023-07-30T09:17:33;33.20;99.10
32865;DHT22;19219;44.500;11.188;2023-07-30T09:20:00;33.20;99.30
32865;DHT22;19219;44.500;11.188;2023-07-30T09:22:27;33.60;99.90
32865;DHT22;19219;44.500;11.188;2023-07-30T09:24:54;33.80;98.60
32865;DHT22;19219;44.500;11.188;2023-07-30T09:27:24;33.20;98.60
32865;DHT22;19219;44.500;11.188;2023-07-30T09:29:58;33.20;98.80
32865;DHT22;19219;44.500;11.188;2023-07-30T09:32:32;33.20;97.50
32865;DHT22;19219;44.500;11.188;2023-07-30T09:35:08;32.90;97.80
32865;DHT22;19219;44.500;11.188;2023-07-30T09:37:40;32.60;98.20
32865;DHT22;19219;44.500;11.188;2023-07-30T09:40:08;33.00;98.60
32865;DHT22;19219;44.500;11.188;2023-07-30T09:42:35;33.40;98.30
32865;DHT22;19219;44.500;11.188;2023-07-30T09:45:03;33.80;97.90
32865;DHT22;19219;44.500;11.188;2023-07-30T09:47:32;34.10;97.50
32865;DHT22;19219;44.500;11.188;2023-07-30T09:50:01;34.00;96.60
32865;DHT22;19219;44.500;11.188;2023-07-30T09:52:27;33.80;96.50
32865;DHT22;19219;44.500;11.188;2023-07-30T09:54:53;33.80;97.30
32865;DHT22;19219;44.500;11.188;2023-07-30T09:57:19;33.60;97.00
32865;DHT22;19219;44.500;11.188;2023-07-30T09:59:44;33.80;98.40
32865;DHT22;19219;44.500;11.188;2023-07-30T10:02:11;33.90;96.70
32865;DHT22;19219;44.500;11.188;2023-07-30T10:04:43;34.00;96.80
32865;DHT22;19219;44.500;11.188;2023-07-30T10:07:14;33.80;96.40
32865;DHT22;19219;44.500;11.188;2023-07-30T10:09:44;33.50;96.00
32865;DHT22;19219;44.500;11.188;2023-07-30T10:12:16;33.20;97.50
32865;DHT22;19219;44.500;11.188;2023-07-30T10:14:44;33.30;97.60
32865;DHT22;19219;44.500;11.188;2023-07-30T10:17:10;33.30;97.20
32865;DHT22;19219;44.500;11.188;2023-07-30T10:19:37;33.30;97.20
32865;DHT22;19219;44.500;11.188;2023-07-30T10:25:02;33.50;96.70
32865;DHT22;19219;44.500;11.188;2023-07-30T10:27:36;33.50;96.90
32865;DHT22;19219;44.500;11.188;2023-07-30T10:30:17;33.50;96.70
32865;DHT22;19219;44.500;11.188;2023-07-30T10:33:03;33.20;98.40
32865;DHT22;19219;44.500;11.188;2023-07-30T10:35:35;33.50;97.00
32865;DHT22;19219;44.500;11.188;2023-07-30T10:38:34;33.40;97.10
32865;DHT22;19219;44.500;11.188;2023-07-30T10:43:40;33.30;97.10
32865;DHT22;19219;44.500;11.188;2023-07-30T10:46:09;33.20;97.20
32865;DHT22;19219;44.500;11.188;2023-07-30T10:48:39;33.20;97.10
32865;DHT22;19219;44.500;11.188;2023-07-30T10:51:08;33.30;97.70
32865;DHT22;19219;44.500;11.188;2023-07-30T10:53:34;33.30;97.10
32865;DHT22;19219;44.500;11.188;2023-07-30T10:56:05;33.40;96.80
32865;DHT22;19219;44.500;11.188;2023-07-30T10:58:32;33.20;95.90
32865;DHT22;19219;44.500;11.188;2023-07-30T11:01:00;32.90;96.40
32865;DHT22;19219;44.500;11.188;2023-07-30T11:03:27;32.90;97.10
32865;DHT22;19219;44.500;11.188;2023-07-30T11:05:53;33.00;96.80
32865;DHT22;19219;44.500;11.188;2023-07-30T11:08:19;33.20;96.50
32865;DHT22;19219;44.500;11.188;2023-07-30T11:10:45;33.30;96.80
32865;DHT22;19219;44.500;11.188;2023-07-30T11:13:13;33.30;97.00
32865;DHT22;19219;44.500;11.188;2023-07-30T11:15:44;33.30;97.20
32865;DHT22;19219;44.500;11.188;2023-07-30T11:18:12;33.40;98.10
32865;DHT22;19219;44.500;11.188;2023-07-30T11:20:38;33.50;97.40
32865;DHT22;19219;44.500;11.188;2023-07-30T11:23:23;33.40;97.40
32865;DHT22;19219;44.500;11.188;2023-07-30T11:25:51;33.30;97.20
32865;DHT22;19219;44.500;11.188;2023-07-30T11:28:37;33.40;97.90
32865;DHT22;19219;44.500;11.188;2023-07-30T11:31:08;33.50;97.50
32865;DHT22;19219;44.500;11.188;2023-07-30T11:33:36;33.50;97.20
32865;DHT22;19219;44.500;11.188;2023-07-30T11:36:03;33.50;97.60
32865;DHT22;19219;44.500;11.188;2023-07-30T11:38:30;33.30;97.90
32865;DHT22;19219;44.500;11.188;2023-07-30T11:40:56;33.30;97.70
32865;DHT22;19219;44.500;11.188;2023-07-30T11:43:23;33.20;97.40
32865;DHT22;19219;44.500;11.188;2023-07-30T11:45:49;32.90;97.20
32865;DHT22;19219;44.500;11.188;2023-07-30T11:48:31;32.90;98.10
32865;DHT22;19219;44.500;11.188;2023-07-30T11:50:56;33.00;97.90
32865;DHT22;19219;44.500;11.188;2023-07-30T11:53:22;32.90;97.50
32865;DHT22;19219;44.500;11.188;2023-07-30T11:56:32;32.80;97.90
32865;DHT22;19219;44.500;11.188;2023-07-30T11:59:06;33.00;98.80
32865;DHT22;19219;44.500;11.188;2023-07-30T12:01:34;32.90;98.10
32865;DHT22;19219;44.500;11.188;2023-07-30T12:04:02;33.10;98.10
32865;DHT22;19219;44.500;11.188;2023-07-30T12:06:39;33.10;97.80
32865;DHT22;19219;44.500;11.188;2023-07-30T12:09:12;33.10;97.90
32865;DHT22;19219;44.500;11.188;2023-07-30T12:12:04;33.00;98.50
32865;DHT22;19219;44.500;11.188;2023-07-30T12:14:52;33.00;98.50
32865;DHT22;19219;44.500;11.188;2023-07-30T12:17:18;33.20;99.90
32865;DHT22;19219;44.500;11.188;2023-07-30T12:19:44;33.30;99.90
32865;DHT22;19219;44.500;11.188;2023-07-30T12:22:09;33.40;99.90
32865;DHT22;19219;44.500;11.188;2023-07-30T12:24:35;33.60;99.90
32865;DHT22;19219;44.500;11.188;2023-07-30T12:27:01;33.90;99.20
32865;DHT22;19219;44.500;11.188;2023-07-30T12:29:27;33.90;99.90
32865;DHT22;19219;44.500;11.188;2023-07-30T12:31:53;33.80;99.70
32865;DHT22;19219;44.500;11.188;2023-07-30T12:34:22;33.80;99.90
32865;DHT22;19219;44.500;11.188;2023-07-30T12:36:47;33.70;97.20
32865;DHT22;19219;44.500;11.188;2023-07-30T12:39:13;33.60;97.80
32865;DHT22;19219;44.500;11.188;2023-07-30T12:41:39;33.80;98.20
32865;DHT22;19219;44.500;11.188;2023-07-30T12:44:04;33.80;98.40
32865;DHT22;19219;44.500;11.188;2023-07-30T12:46:31;34.00;99.70
32865;DHT22;19219;44.500;11.188;2023-07-30T12:48:58;33.90;98.00
32865;DHT22;19219;44.500;11.188;2023-07-30T12:51:28;34.00;97.90
32865;DHT22;19219;44.500;11.188;2023-07-30T12:53:54;34.40;98.30
32865;DHT22;19219;44.500;11.188;2023-07-30T12:56:20;34.60;97.20
32865;DHT22;19219;44.500;11.188;2023-07-30T12:58:45;35.00;96.20
32865;DHT22;19219;44.500;11.188;2023-07-30T13:01:11;34.80;96.80
32865;DHT22;19219;44.500;11.188;2023-07-30T13:03:37;34.50;97.20
32865;DHT22;19219;44.500;11.188;2023-07-30T13:06:04;34.20;97.40
32865;DHT22;19219;44.500;11.188;2023-07-30T13:08:30;33.90;98.10
32865;DHT22;19219;44.500;11.188;2023-07-30T13:10:55;33.70;97.10
32865;DHT22;19219;44.500;11.188;2023-07-30T13:13:21;33.50;98.00
32865;DHT22;19219;44.500;11.188;2023-07-30T13:15:47;33.50;97.50
32865;DHT22;19219;44.500;11.188;2023-07-30T13:18:13;33.60;97.40
32865;DHT22;19219;44.500;11.188;2023-07-30T13:20:38;33.50;97.70
32865;DHT22;19219;44.500;11.188;2023-07-30T13:23:04;33.50;98.10
32865;DHT22;19219;44.500;11.188;2023-07-30T13:25:29;33.50;97.60
32865;DHT22;19219;44.500;11.188;2023-07-30T13:27:55;33.50;97.60
32865;DHT22;19219;44.500;11.188;2023-07-30T13:30:21;33.50;97.50
32865;DHT22;19219;44.500;11.188;2023-07-30T13:32:46;33.70;97.90
32865;DHT22;19219;44.500;11.188;2023-07-30T13:35:12;33.70;98.00
32865;DHT22;19219;44.500;11.188;2023-07-30T13:37:38;33.70;97.60
32865;DHT22;19219;44.500;11.188;2023-07-30T13:40:04;33.70;97.30
32865;DHT22;19219;44.500;11.188;2023-07-30T13:42:30;33.70;97.20
32865;DHT22;19219;44.500;11.188;2023-07-30T13:44:56;33.80;97.90
32865;DHT22;19219;44.500;11.188;2023-07-30T13:47:21;33.60;96.70
32865;DHT22;19219;44.500;11.188;2023-07-30T13:49:47;33.60;96.90
32865;DHT22;19219;44.500;11.188;2023-07-30T13:52:13;33.80;97.20
32865;DHT22;19219;44.500;11.188;2023-07-30T13:54:39;33.80;96.70
32865;DHT22;19219;44.500;11.188;2023-07-30T13:57:05;33.90;97.70
32865;DHT22;19219;44.500;11.188;2023-07-30T13:59:31;34.00;96.60
32865;DHT22;19219;44.500;11.188;2023-07-30T14:01:57;33.90;97.80
32865;DHT22;19219;44.500;11.188;2023-07-30T14:04:22;33.80;96.80
32865;DHT22;19219;44.500;11.188;2023-07-30T14:06:48;33.90;97.10
32865;DHT22;19219;44.500;11.188;2023-07-30T14:09:14;34.00;96.70
32865;DHT22;19219;44.500;11.188;2023-07-30T14:11:39;34.00;96.60
32865;DHT22;19219;44.500;11.188;2023-07-30T14:14:08;34.00;97.60
32865;DHT22;19219;44.500;11.188;2023-07-30T14:16:34;33.90;96.60
32865;DHT22;19219;44.500;11.188;2023-07-30T14:18:59;33.80;96.30
32865;DHT22;19219;44.500;11.188;2023-07-30T14:21:25;33.90;96.40
32865;DHT22;19219;44.500;11.188;2023-07-30T14:23:51;34.10;96.40
32865;DHT22;19219;44.500;11.188;2023-07-30T14:26:16;34.10;96.20
32865;DHT22;19219;44.500;11.188;2023-07-30T14:28:42;33.90;96.50
32865;DHT22;19219;44.500;11.188;2023-07-30T14:31:08;33.90;96.10
32865;DHT22;19219;44.500;11.188;2023-07-30T14:33:34;33.90;96.40
32865;DHT22;19219;44.500;11.188;2023-07-30T14:35:59;33.90;96.50
32865;DHT22;19219;44.500;11.188;2023-07-30T14:38:25;33.90;96.80
32865;DHT22;19219;44.500;11.188;2023-07-30T14:40:51;34.00;96.20
32865;DHT22;19219;44.500;11.188;2023-07-30T14:43:16;33.90;96.60
32865;DHT22;19219;44.500;11.188;2023-07-30T14:45:42;33.90;96.50
32865;DHT22;19219;44.500;11.188;2023-07-30T14:48:08;34.00;96.00
32865;DHT22;19219;44.500;11.188;2023-07-30T14:50:33;33.80;96.00
32865;DHT22;19219;44.500;11.188;2023-07-30T14:52:59;33.90;96.50
32865;DHT22;19219;44.500;11.188;2023-07-30T14:55:25;33.90;96.20
32865;DHT22;19219;44.500;11.188;2023-07-30T14:57:50;33.80;96.90
32865;DHT22;19219;44.500;11.188;2023-07-30T15:00:16;33.60;96.70
32865;DHT22;19219;44.500;11.188;2023-07-30T15:02:43;33.70;97.10
32865;DHT22;19219;44.500;11.188;2023-07-30T15:05:09;33.70;96.60
32865;DHT22;19219;44.500;11.188;2023-07-30T15:07:35;33.80;96.70
32865;DHT22;19219;44.500;11.188;2023-07-30T15:10:00;33.90;96.70
32865;DHT22;19219;44.500;11.188;2023-07-30T15:12:26;33.70;95.80
32865;DHT22;19219;44.500;11.188;2023-07-30T15:14:52;33.70;95.60
32865;DHT22;19219;44.500;11.188;2023-07-30T15:17:17;33.70;95.40
32865;DHT22;19219;44.500;11.188;2023-07-30T15:19:43;33.80;96.60
32865;DHT22;19219;44.500;11.188;2023-07-30T15:22:12;33.80;96.30
32865;DHT22;19219;44.500;11.188;2023-07-30T15:24:38;33.80;96.00